PDT,Max TemperatureF,Mean TemperatureF,Min TemperatureF,Max Dew PointF,MeanDew PointF,Min DewpointF,Max Humidity, Mean Humidity, Min Humidity, Max Sea Level PressureIn, Mean Sea Level PressureIn, Min Sea Level PressureIn, Max VisibilityMiles, Mean VisibilityMiles, Min VisibilityMiles, Max Wind SpeedMPH, Mean Wind SpeedMPH, Max Gust SpeedMPH,PrecipitationIn, CloudCover, Events, WindDirDegrees
2011-10-1,92,72,51,48,44,42,72,46,19,29.99,29.89,29.83,,,,20,7,24,0.00,,,49
2011-10-2,88,71,53,47,46,44,66,45,24,29.95,29.91,29.88,,,,18,8,25,0.00,,,19
2011-10-3,82,66,50,49,47,42,77,52,26,29.92,29.88,29.83,,,,20,7,26,0.00,,,280
2011-10-4,59,53,46,51,48,42,86,74,62,29.92,29.88,29.83,,,,21,9,25,0.01,,,240
2011-10-5,59,54,48,53,48,43,93,77,61,29.93,29.85,29.76,,,,23,10,28,0.07,,,237
2011-10-6,57,52,47,45,42,37,86,69,51,29.90,29.85,29.79,,,,21,13,25,0.00,,,245
2011-10-7,67,53,38,45,40,36,93,63,32,30.03,29.97,29.90,,,,15,5,20,0.00,,,348
2011-10-8,76,56,36,40,33,27,85,51,17,30.04,29.96,29.90,,,,18,7,23,0.00,,,36
2011-10-9,76,58,39,39,32,28,79,49,18,29.96,29.90,29.83,,,,20,7,24,0.00,,,50
2011-10-10,79,59,39,39,35,32,70,45,19,29.91,29.87,29.82,,,,18,7,23,0.00,,,42
2011-10-11,86,63,40,38,35,32,71,44,16,29.88,29.84,29.79,,,,16,8,21,0.00,,,52
2011-10-12,88,72,55,43,36,31,55,34,13,29.96,29.85,29.81,,,,24,11,32,0.00,,,55
2011-10-13,94,72,50,35,28,12,50,28,5,29.86,29.83,29.75,,,,20,8,24,0.00,,,57
2011-10-14,91,69,46,47,38,25,60,35,9,29.88,29.83,29.78,,,,20,7,22,0.00,,,59
2011-10-15,86,65,44,48,38,27,66,39,12,29.92,29.88,29.83,,,,18,8,23,0.00,,,62
2011-10-16,89,67,44,50,38,25,71,41,11,29.98,29.94,29.91,,,,20,7,23,0.00,,,33
2011-10-17,86,66,45,46,40,35,65,41,17,30.03,29.98,29.94,,,,17,7,22,0.00,,,56
2011-10-18,88,67,46,45,34,27,66,39,11,30.01,29.94,29.88,,,,20,8,24,0.00,,,57
2011-10-19,85,65,45,52,38,29,53,34,14,29.89,29.86,29.80,,,,18,9,22,0.00,,,62
2011-10-20,80,59,37,50,38,28,76,46,16,29.98,29.91,29.88,,,,16,8,20,0.00,,,70
2011-10-21,81,62,42,46,40,31,71,46,21,30.04,29.97,29.92,,,,24,10,30,0.00,,,56
2011-10-22,85,66,46,43,40,37,80,50,20,30.03,29.96,29.91,,,,22,9,28,0.00,,,53
2011-10-23,90,68,45,46,36,28,60,36,11,29.96,29.92,29.84,,,,18,6,22,0.00,,,58
2011-10-24,79,63,47,52,42,33,61,43,25,29.99,29.95,29.91,,,,13,6,18,0.00,,,55
2011-10-25,62,55,48,50,46,44,100,78,55,30.02,29.97,29.93,,,,22,8,26,0.00,,,267
2011-10-26,66,58,50,49,43,15,93,71,48,29.99,29.94,29.89,,,,13,7,22,0.01,,,274
2011-10-27,69,51,32,12,8,2,38,23,7,30.00,29.96,29.91,,,,29,14,37,0.00,,,57
2011-10-28,74,54,34,25,14,4,38,23,8,30.03,29.99,29.95,,,,25,10,30,0.00,,,50
2011-10-29,78,57,36,29,19,13,53,31,8,30.03,29.98,29.93,,,,22,8,25,0.00,,,56
2011-10-30,82,59,35,23,15,8,44,25,6,30.07,30.00,29.95,,,,22,9,26,0.00,,,58
2011-10-31,84,63,41,30,22,11,39,23,7,29.99,29.94,29.86,,,,17,7,22,0.00,,,46